This is the latest recevied weather packets stored in our database for station/object K4NSC-13. If no packets are shown the sender has not sent any weather packets the latest 10 day(s).
| Time | Temp. | Humidity | Pressure | Rain* | Wind** | Luminosity | Snow |
|---|---|---|---|---|---|---|---|
| 1777649120 | 12.78° C | 89% | 1015.5 hPa | 1.02 mm | - | 120 W/m² | - |
| 1777644921 | 13.33° C | 82% | 1015 hPa | 0 mm | - | 236 W/m² | - |
| 1777639544 | 15° C | 62% | 1014.2 hPa | 0 mm | - | 58 W/m² | - |
| 1777628126 | 16.11° C | 60% | 1013.4 hPa | 0 mm | - | 0 W/m² | - |
| 1777625726 | 16.67° C | 62% | 1013.5 hPa | 0 mm | - | 0 W/m² | - |
| 1777622726 | 15.56° C | 75% | 1013.1 hPa | 2.03 mm | - | 0 W/m² | - |
| 1777622126 | 15° C | 82% | 1013.1 hPa | 2.29 mm | - | 0 W/m² | - |
| 1777621549 | 15° C | 83% | 1013 hPa | 2.29 mm | - | 0 W/m² | - |
| 1777620927 | 15.56° C | 86% | 1012.9 hPa | 2.29 mm | - | 0 W/m² | - |
| 1777611329 | 16.67° C | 97% | 1012.4 hPa | 0 mm | - | 0 W/m² | - |
| 1777610729 | 16.67° C | 97% | 1012.3 hPa | 0 mm | - | 0 W/m² | - |
| 1777610129 | 16.67° C | 97% | 1012.3 hPa | 0 mm | - | 0 W/m² | - |
| 1777608930 | 16.67° C | 96% | 1012.2 hPa | 0 mm | - | 0 W/m² | - |
| 1777607139 | 17.22° C | 95% | 1012.1 hPa | 0 mm | - | 0 W/m² | - |
| 1777599919 | 19.44° C | 89% | 1011.4 hPa | 0 mm | - | 0 W/m² | - |
| 1777598120 | 19.44° C | 87% | 1011 hPa | 0 mm | - | 0 W/m² | - |
| 1777596919 | 20° C | 87% | 1010.8 hPa | 0 mm | - | 0 W/m² | - |
| 1777592121 | 22.78° C | 75% | 1010 hPa | 0 mm | - | 31 W/m² | - |
| 1777591521 | 23.33° C | 72% | 1009.9 hPa | 0 mm | - | 46 W/m² | - |
| 1777590924 | 24.44° C | 69% | 1009.9 hPa | 0 mm | - | 59 W/m² | - |
| 1777588522 | 25° C | 67% | 1009.4 hPa | 0 mm | - | 150 W/m² | - |
| 1777587322 | 25° C | 65% | 1009.3 hPa | 0 mm | - | 279 W/m² | - |
| 1777581324 | 24.44° C | 64% | 1009.5 hPa | 0 mm | - | 639 W/m² | - |
| 1777580724 | 24.44° C | 65% | 1009.5 hPa | 0 mm | - | 747 W/m² | - |
| 1777568726 | 20.56° C | 85% | 1011.1 hPa | 0 mm | - | 347 W/m² | - |
* Rain latest hour (hover to see other rain measurements)
** Current wind speed in m/s (hover to see current wind gust speed)